createdAt,value
2018-10-09T00:00:50.906Z,4.47
2018-10-09T00:03:18.986Z,4.70
2018-10-09T00:05:47.302Z,3.97
2018-10-09T00:08:15.581Z,4.40
2018-10-09T00:10:44.070Z,5.23
2018-10-09T00:13:12.578Z,5.27
2018-10-09T00:15:41.019Z,5.73
2018-10-09T00:18:09.315Z,5.80
2018-10-09T00:20:37.824Z,5.63
2018-10-09T00:23:06.338Z,5.40
2018-10-09T00:25:34.753Z,5.40
2018-10-09T00:28:03.250Z,5.20
2018-10-09T00:30:31.492Z,4.83
2018-10-09T00:32:59.978Z,5.00
2018-10-09T00:35:28.302Z,5.63
2018-10-09T00:37:56.444Z,5.23
2018-10-09T00:40:24.846Z,5.27
2018-10-09T00:42:53.151Z,5.63
2018-10-09T00:45:21.615Z,4.70
2018-10-09T00:47:50.179Z,4.97
2018-10-09T00:50:18.337Z,4.77
2018-10-09T00:52:46.774Z,4.83
2018-10-09T00:55:14.923Z,5.10
2018-10-09T00:57:43.430Z,5.27
2018-10-09T01:00:11.559Z,4.80
2018-10-09T01:02:39.907Z,5.37
2018-10-09T01:05:08.124Z,5.80
2018-10-09T01:07:36.466Z,5.40
2018-10-09T01:10:04.787Z,5.27
2018-10-09T01:12:33.209Z,5.87
2018-10-09T01:15:01.491Z,5.17
2018-10-09T01:17:29.766Z,5.50
2018-10-09T01:19:58.102Z,4.90
2018-10-09T01:22:26.287Z,6.00
2018-10-09T01:24:54.361Z,10.87
2018-10-09T01:27:22.503Z,12.60
2018-10-09T01:29:50.750Z,10.80
2018-10-09T01:32:18.886Z,10.17
2018-10-09T01:34:47.039Z,9.30
2018-10-09T01:37:15.259Z,8.40
2018-10-09T01:39:43.319Z,9.47
2018-10-09T01:42:11.647Z,9.97
2018-10-09T01:44:39.884Z,8.77
2018-10-09T01:47:08.292Z,9.03
2018-10-09T01:49:36.654Z,8.43
2018-10-09T01:52:04.894Z,9.23
2018-10-09T01:54:33.158Z,8.90
2018-10-09T01:57:01.298Z,8.23
2018-10-09T01:59:29.535Z,6.43
2018-10-09T02:01:57.836Z,7.10
2018-10-09T02:04:25.934Z,6.57
2018-10-09T02:06:54.030Z,6.33
2018-10-09T02:09:22.402Z,7.30
2018-10-09T02:11:50.574Z,7.00
2018-10-09T02:14:18.778Z,6.57
2018-10-09T02:16:47.315Z,7.53
2018-10-09T02:19:15.542Z,7.23
2018-10-09T02:21:44.059Z,7.20
2018-10-09T02:24:12.080Z,7.57
2018-10-09T02:26:40.424Z,7.00
2018-10-09T02:29:08.628Z,7.67
2018-10-09T02:31:37.123Z,7.90
2018-10-09T02:34:05.395Z,7.40
2018-10-09T02:36:33.890Z,7.13
2018-10-09T02:39:02.264Z,7.00
2018-10-09T02:41:30.694Z,7.97
2018-10-09T02:43:58.906Z,8.10
2018-10-09T02:46:27.184Z,8.28
2018-10-09T02:48:55.358Z,8.50
2018-10-09T02:51:23.670Z,8.67
2018-10-09T02:53:52.126Z,8.87
2018-10-09T02:56:20.399Z,8.33
2018-10-09T02:58:48.683Z,8.80
2018-10-09T03:01:17.157Z,8.73
2018-10-09T03:03:45.460Z,8.63
2018-10-09T03:06:13.903Z,10.87
2018-10-09T03:08:42.076Z,10.37
2018-10-09T03:11:10.491Z,11.43
2018-10-09T03:13:38.775Z,10.13
2018-10-09T03:16:07.298Z,9.63
2018-10-09T03:18:35.587Z,8.40
2018-10-09T03:21:03.622Z,11.17
2018-10-09T03:23:31.868Z,11.97
2018-10-09T03:26:00.124Z,14.30
2018-10-09T03:28:28.591Z,13.87
2018-10-09T03:30:57.059Z,11.80
2018-10-09T03:33:32.092Z,10.17
2018-10-09T03:36:00.338Z,11.83
2018-10-09T03:38:28.470Z,11.40
2018-10-09T03:40:56.972Z,11.33
2018-10-09T03:43:25.149Z,12.87
2018-10-09T03:45:53.507Z,10.00
2018-10-09T03:48:21.651Z,9.23
2018-10-09T03:50:50.041Z,9.90
2018-10-09T03:53:18.302Z,9.87
2018-10-09T03:55:46.427Z,11.00
2018-10-09T03:58:14.618Z,9.53
2018-10-09T04:00:42.763Z,10.53
2018-10-09T04:03:11.258Z,11.17
2018-10-09T04:05:39.495Z,10.60
2018-10-09T04:08:07.962Z,10.73
2018-10-09T04:10:36.267Z,10.03
2018-10-09T04:13:04.767Z,10.73
2018-10-09T04:15:33.004Z,11.13
2018-10-09T04:18:01.679Z,10.93
2018-10-09T04:20:29.746Z,10.97
2018-10-09T04:22:57.851Z,10.20
2018-10-09T04:25:26.111Z,9.47
2018-10-09T04:27:54.350Z,9.40
2018-10-09T04:30:22.491Z,9.43
2018-10-09T04:32:50.759Z,11.50
2018-10-09T04:35:18.838Z,14.23
2018-10-09T04:37:47.246Z,12.13
2018-10-09T04:40:15.423Z,10.13
2018-10-09T04:42:43.663Z,10.70
2018-10-09T04:45:12.148Z,9.20
2018-10-09T04:47:40.302Z,10.17
2018-10-09T04:50:08.691Z,11.03
2018-10-09T04:52:37.044Z,9.37
2018-10-09T04:55:04.863Z,9.80
2018-10-09T04:57:32.567Z,9.00
2018-10-09T05:00:00.362Z,9.50
2018-10-09T05:02:28.544Z,9.33
2018-10-09T05:04:56.845Z,8.67
2018-10-09T05:07:24.967Z,9.17
2018-10-09T05:09:53.342Z,10.53
2018-10-09T05:12:21.512Z,18.43
2018-10-09T05:14:50.004Z,16.83
2018-10-09T05:17:18.271Z,11.90
2018-10-09T05:19:46.746Z,10.20
2018-10-09T05:22:15.007Z,7.67
2018-10-09T05:24:42.804Z,7.67
2018-10-09T05:27:10.510Z,7.80
2018-10-09T05:29:38.195Z,9.07
2018-10-09T05:32:06.373Z,8.27
2018-10-09T05:34:34.546Z,8.07
2018-10-09T05:37:02.947Z,9.20
2018-10-09T05:39:31.142Z,7.63
2018-10-09T05:41:59.381Z,7.63
2018-10-09T05:44:27.872Z,7.87
2018-10-09T05:46:56.244Z,7.97
2018-10-09T05:49:24.243Z,9.17
2018-10-09T05:51:52.493Z,8.97
2018-10-09T05:54:20.754Z,9.23
2018-10-09T05:56:51.332Z,9.47
2018-10-09T05:59:19.599Z,10.37
2018-10-09T06:01:47.746Z,11.83
2018-10-09T06:04:16.082Z,11.07
2018-10-09T06:06:43.843Z,10.77
2018-10-09T06:09:11.735Z,10.73
2018-10-09T06:11:39.559Z,11.47
2018-10-09T06:14:08.067Z,12.33
2018-10-09T06:16:36.579Z,12.10
2018-10-09T06:19:04.555Z,13.20
2018-10-09T06:21:33.028Z,14.07
2018-10-09T06:24:01.346Z,13.87
2018-10-09T06:26:29.780Z,13.63
2018-10-09T06:28:58.060Z,12.17
2018-10-09T06:31:26.592Z,11.33
2018-10-09T06:33:54.820Z,12.17
2018-10-09T06:36:23.032Z,12.63
2018-10-09T06:38:51.191Z,12.40
2018-10-09T06:41:19.442Z,12.47
2018-10-09T06:43:48.023Z,12.73
2018-10-09T06:46:16.830Z,12.10
2018-10-09T06:48:45.697Z,11.63
2018-10-09T06:51:13.983Z,13.13
2018-10-09T06:53:42.589Z,12.10
2018-10-09T06:56:11.519Z,12.43
2018-10-09T06:58:39.646Z,11.13
2018-10-09T07:01:08.000Z,11.53
2018-10-09T07:03:36.166Z,10.87
2018-10-09T07:06:04.488Z,11.10
2018-10-09T07:08:33.846Z,11.30
2018-10-09T07:11:02.176Z,10.87
2018-10-09T07:13:30.479Z,11.20
2018-10-09T07:15:58.864Z,11.37
2018-10-09T07:18:26.573Z,10.90
2018-10-09T07:20:54.743Z,11.27
2018-10-09T07:23:22.552Z,12.10
2018-10-09T07:25:50.303Z,10.90
2018-10-09T07:28:18.042Z,12.80
2018-10-09T07:30:45.845Z,12.33
2018-10-09T07:33:13.628Z,14.50
2018-10-09T07:35:41.351Z,17.00
2018-10-09T07:38:09.059Z,15.37
2018-10-09T07:40:36.775Z,14.60
2018-10-09T07:43:04.493Z,16.73
2018-10-09T07:45:32.198Z,13.60
2018-10-09T07:47:59.917Z,22.27
2018-10-09T07:50:27.607Z,13.27
2018-10-09T07:52:55.356Z,16.17
2018-10-09T07:55:23.011Z,14.93
2018-10-09T07:57:50.697Z,13.40
2018-10-09T08:00:18.420Z,13.60
2018-10-09T08:02:46.586Z,13.13
2018-10-09T08:05:14.651Z,14.20
2018-10-09T08:07:42.542Z,13.37
2018-10-09T08:10:10.782Z,14.07
2018-10-09T08:12:38.873Z,12.63
2018-10-09T08:15:07.003Z,13.53
2018-10-09T08:17:35.362Z,8.87
2018-10-09T08:20:03.254Z,13.20
2018-10-09T08:22:31.416Z,11.07
2018-10-09T08:24:59.618Z,10.03
2018-10-09T08:27:27.478Z,9.57
2018-10-09T08:29:55.222Z,10.07
2018-10-09T08:32:22.949Z,10.73
2018-10-09T08:34:50.622Z,10.77
2018-10-09T08:37:18.315Z,12.13
2018-10-09T08:39:45.999Z,12.57
2018-10-09T08:42:13.699Z,13.60
2018-10-09T08:44:41.418Z,14.00
2018-10-09T08:47:09.096Z,13.77
2018-10-09T08:49:36.810Z,14.87
2018-10-09T08:52:04.726Z,14.00
2018-10-09T08:54:32.366Z,12.97
2018-10-09T08:57:00.055Z,13.33
2018-10-09T08:59:27.763Z,11.77
2018-10-09T09:01:55.442Z,12.13
2018-10-09T09:04:23.104Z,10.77
2018-10-09T09:06:50.811Z,10.87
2018-10-09T09:09:18.482Z,10.77
2018-10-09T09:11:46.154Z,10.90
2018-10-09T09:14:13.951Z,10.40
2018-10-09T09:16:41.680Z,9.50
2018-10-09T09:19:09.348Z,10.77
2018-10-09T09:21:37.104Z,10.20
2018-10-09T09:24:04.781Z,8.77
2018-10-09T09:26:32.524Z,9.30
2018-10-09T09:29:00.206Z,9.47
2018-10-09T09:31:28.195Z,8.17
2018-10-09T09:33:55.926Z,8.30
2018-10-09T09:36:23.672Z,8.83
2018-10-09T09:38:51.383Z,9.13
2018-10-09T09:41:19.163Z,9.27
2018-10-09T09:43:46.857Z,8.90
2018-10-09T09:46:14.668Z,9.00
2018-10-09T09:48:42.335Z,8.20
2018-10-09T09:51:10.072Z,8.03
2018-10-09T09:53:37.739Z,8.80
2018-10-09T09:56:05.447Z,8.20
2018-10-09T09:58:33.341Z,7.93
2018-10-09T10:01:07.152Z,7.73
2018-10-09T10:03:35.002Z,6.73
2018-10-09T10:06:02.668Z,6.67
2018-10-09T10:14:31.326Z,6.33
2018-10-09T10:16:59.028Z,6.67
2018-10-09T10:19:26.747Z,5.50
2018-10-09T10:21:54.491Z,5.30
2018-10-09T10:24:22.306Z,4.73
2018-10-09T10:26:50.081Z,4.80
2018-10-09T10:29:17.813Z,4.63
2018-10-09T10:31:45.491Z,4.43
2018-10-09T10:34:13.237Z,5.10
2018-10-09T10:36:40.980Z,5.40
2018-10-09T10:39:10.325Z,5.70
2018-10-09T10:41:38.022Z,5.50
2018-10-09T10:44:05.827Z,5.80
2018-10-09T10:46:41.495Z,9.80
2018-10-09T10:49:10.488Z,6.60
2018-10-09T10:51:38.349Z,6.80
2018-10-09T10:54:06.203Z,6.23
2018-10-09T10:56:34.332Z,6.83
2018-10-09T10:59:02.064Z,6.50
2018-10-09T11:01:29.799Z,6.73
2018-10-09T11:03:57.723Z,6.50
2018-10-09T11:06:25.758Z,6.93
2018-10-09T11:08:53.532Z,6.97
2018-10-09T11:11:21.282Z,7.43
2018-10-09T11:13:49.063Z,6.70
2018-10-09T11:16:17.223Z,7.53
2018-10-09T11:18:45.040Z,8.13
2018-10-09T11:21:12.793Z,7.27
2018-10-09T11:23:40.516Z,8.17
2018-10-09T11:26:08.379Z,7.80
2018-10-09T11:28:36.083Z,6.87
2018-10-09T11:31:03.827Z,7.17
2018-10-09T11:33:31.627Z,6.27
2018-10-09T11:35:59.551Z,7.23
2018-10-09T11:38:27.305Z,6.73
2018-10-09T11:40:55.059Z,7.00
2018-10-09T11:43:22.882Z,7.27
2018-10-09T11:45:50.571Z,6.50
2018-10-09T11:48:18.366Z,6.33
2018-10-09T11:50:46.171Z,6.07
2018-10-09T11:53:13.983Z,6.47
2018-10-09T11:55:41.755Z,6.57
2018-10-09T11:58:09.519Z,6.83
2018-10-09T12:00:39.148Z,6.70
2018-10-09T12:03:07.075Z,7.30
2018-10-09T12:05:34.922Z,6.33
2018-10-09T12:08:02.972Z,7.03
2018-10-09T12:10:30.935Z,7.13
2018-10-09T12:12:58.703Z,6.37
2018-10-09T12:15:26.468Z,6.33
2018-10-09T12:17:54.255Z,5.90
2018-10-09T12:20:21.966Z,6.13
2018-10-09T12:22:49.812Z,6.17
2018-10-09T12:25:17.587Z,6.73
2018-10-09T12:27:45.388Z,6.63
2018-10-09T12:30:13.168Z,5.93
2018-10-09T12:32:41.054Z,5.63
2018-10-09T12:35:08.814Z,6.80
2018-10-09T12:37:36.555Z,6.20
2018-10-09T12:40:04.367Z,6.70
2018-10-09T12:42:32.151Z,5.73
2018-10-09T12:44:59.876Z,5.20
2018-10-09T12:47:27.667Z,5.33
2018-10-09T12:49:55.404Z,5.47
2018-10-09T12:52:23.270Z,5.67
2018-10-09T12:54:51.075Z,5.37
2018-10-09T12:57:18.814Z,5.27
2018-10-09T12:59:46.564Z,5.40
2018-10-09T13:02:14.370Z,5.50
2018-10-09T13:04:42.091Z,5.87
2018-10-09T13:07:09.912Z,5.70
2018-10-09T13:09:37.832Z,6.13
2018-10-09T13:12:05.557Z,5.50
2018-10-09T13:14:33.360Z,5.53
2018-10-09T13:17:01.184Z,6.07
2018-10-09T13:19:28.895Z,6.70
2018-10-09T13:21:56.848Z,6.20
2018-10-09T13:24:24.450Z,6.00
2018-10-09T13:26:52.255Z,6.07
2018-10-09T13:29:19.945Z,6.60
2018-10-09T13:31:49.024Z,5.93
2018-10-09T13:34:16.924Z,6.77
2018-10-09T13:36:44.818Z,7.23
2018-10-09T13:39:12.588Z,6.63
2018-10-09T13:41:40.290Z,5.97
2018-10-09T13:44:08.190Z,7.43
2018-10-09T13:46:37.723Z,7.30
2018-10-09T13:49:06.064Z,6.43
2018-10-09T13:51:33.847Z,7.20
2018-10-09T13:54:01.678Z,7.03
2018-10-09T13:56:29.540Z,7.13
2018-10-09T13:58:57.339Z,6.43
2018-10-09T14:01:25.200Z,7.70
2018-10-09T14:03:52.907Z,6.70
2018-10-09T14:06:20.869Z,7.40
2018-10-09T14:08:48.979Z,7.30
2018-10-09T14:11:16.738Z,7.50
2018-10-09T14:13:44.484Z,7.43
2018-10-09T14:16:12.407Z,7.10
2018-10-09T14:18:40.175Z,7.43
2018-10-09T14:21:08.403Z,7.73
2018-10-09T14:23:36.956Z,7.40
2018-10-09T14:26:05.176Z,8.03
2018-10-09T14:28:33.612Z,8.27
2018-10-09T14:31:02.155Z,7.90
2018-10-09T14:33:30.579Z,9.07
2018-10-09T14:35:58.871Z,8.97
2018-10-09T14:38:27.192Z,9.40
2018-10-09T14:40:55.612Z,10.00
2018-10-09T14:43:23.916Z,10.17
2018-10-09T14:45:52.439Z,10.20
2018-10-09T14:48:20.819Z,10.47
2018-10-09T14:50:49.079Z,10.00
2018-10-09T14:53:17.006Z,10.57
2018-10-09T14:55:45.508Z,9.90
2018-10-09T14:58:13.501Z,11.73
2018-10-09T15:00:41.632Z,10.23
2018-10-09T15:03:10.128Z,11.20
2018-10-09T15:05:38.175Z,11.00
2018-10-09T15:08:06.689Z,10.77
2018-10-09T15:10:35.130Z,10.57
2018-10-09T15:13:03.422Z,11.57
2018-10-09T15:15:31.261Z,10.77
2018-10-09T15:17:58.958Z,10.20
2018-10-09T15:20:26.674Z,11.13
2018-10-09T15:22:54.510Z,11.40
2018-10-09T15:25:22.364Z,15.00
2018-10-09T15:27:50.115Z,13.77
2018-10-09T15:30:17.898Z,12.17
2018-10-09T15:32:45.631Z,13.50
2018-10-09T15:35:13.980Z,14.47
2018-10-09T15:37:42.311Z,13.17
2018-10-09T15:40:10.788Z,12.13
2018-10-09T15:42:39.044Z,13.77
2018-10-09T15:45:07.052Z,13.50
2018-10-09T15:47:34.763Z,17.70
2018-10-09T15:50:02.577Z,14.40
2018-10-09T15:52:30.365Z,14.47
2018-10-09T15:54:58.187Z,11.50
2018-10-09T15:57:25.883Z,11.77
2018-10-09T15:59:53.639Z,12.07
2018-10-09T16:02:21.561Z,12.33
2018-10-09T16:04:49.290Z,12.07
2018-10-09T16:07:17.087Z,12.90
2018-10-09T16:09:44.826Z,14.27
2018-10-09T16:12:12.515Z,15.73
2018-10-09T16:14:40.344Z,16.20
2018-10-09T16:17:08.153Z,16.73
2018-10-09T16:19:35.931Z,16.70
2018-10-09T16:22:03.823Z,16.43
2018-10-09T16:24:31.590Z,15.07
2018-10-09T16:26:59.372Z,13.90
2018-10-09T16:29:27.147Z,13.83
2018-10-09T16:31:54.882Z,12.63
2018-10-09T16:34:22.648Z,13.03
2018-10-09T16:36:50.441Z,13.07
2018-10-09T16:39:18.248Z,12.57
2018-10-09T16:41:46.068Z,13.57
2018-10-09T16:44:13.911Z,13.67
2018-10-09T16:46:42.109Z,12.87
2018-10-09T16:49:09.903Z,13.30
2018-10-09T16:51:37.743Z,13.00
2018-10-09T16:54:05.575Z,13.43
2018-10-09T16:56:33.319Z,12.03
2018-10-09T16:59:01.248Z,14.53
2018-10-09T17:01:29.048Z,13.33
2018-10-09T17:03:56.788Z,15.77
2018-10-09T17:06:24.665Z,14.50
2018-10-09T17:08:52.419Z,13.13
2018-10-09T17:11:20.157Z,12.73
2018-10-09T17:13:47.975Z,13.20
2018-10-09T17:16:17.207Z,14.70
2018-10-09T17:18:44.968Z,14.90
2018-10-09T17:21:12.755Z,16.57
2018-10-09T17:23:40.535Z,15.37
2018-10-09T17:26:08.463Z,16.57
2018-10-09T17:28:36.506Z,16.07
2018-10-09T17:31:04.247Z,15.80
2018-10-09T17:33:32.057Z,17.13
2018-10-09T17:35:59.811Z,20.77
2018-10-09T17:38:27.583Z,21.07
2018-10-09T17:40:55.271Z,17.93
2018-10-09T17:43:23.054Z,15.60
2018-10-09T17:45:50.815Z,17.77
2018-10-09T17:48:21.096Z,15.53
2018-10-09T17:50:48.937Z,16.70
2018-10-09T17:53:16.713Z,16.33
2018-10-09T17:55:44.491Z,16.80
2018-10-09T17:58:12.332Z,16.73
2018-10-09T18:00:40.144Z,15.37
2018-10-09T18:03:07.888Z,15.03
2018-10-09T18:05:35.700Z,14.63
2018-10-09T18:08:04.804Z,13.67
2018-10-09T18:10:34.003Z,13.27
2018-10-09T18:13:02.708Z,13.47
2018-10-09T18:15:30.496Z,14.13
2018-10-09T18:17:58.259Z,14.53
2018-10-09T18:20:28.347Z,13.67
2018-10-09T18:22:56.079Z,12.97
2018-10-09T18:25:23.831Z,13.47
2018-10-09T18:27:51.612Z,13.67
2018-10-09T18:30:19.423Z,13.17
2018-10-09T18:32:47.337Z,14.03
2018-10-09T18:35:15.056Z,13.87
2018-10-09T18:37:42.815Z,13.47
2018-10-09T18:40:10.643Z,14.70
2018-10-09T18:42:38.850Z,15.73
2018-10-09T18:45:06.849Z,15.27
2018-10-09T18:47:40.000Z,15.03
2018-10-09T18:50:07.791Z,14.23
2018-10-09T18:52:37.798Z,15.43
2018-10-09T18:55:06.090Z,13.97
2018-10-09T18:57:33.943Z,13.57
2018-10-09T19:00:01.743Z,13.27
2018-10-09T19:02:29.506Z,14.37
2018-10-09T19:04:57.276Z,13.87
2018-10-09T19:07:25.515Z,14.67
2018-10-09T19:09:53.764Z,16.10
2018-10-09T19:12:21.792Z,13.80
2018-10-09T19:14:49.922Z,14.23
2018-10-09T19:17:18.267Z,14.87
2018-10-09T19:19:46.295Z,14.53
2018-10-09T19:22:14.008Z,15.10
2018-10-09T19:24:43.628Z,14.40
2018-10-09T19:27:11.787Z,14.07
2018-10-09T19:29:40.324Z,14.63
2018-10-09T19:32:08.584Z,13.63
2018-10-09T19:34:36.863Z,14.33
2018-10-09T19:37:05.084Z,15.60
2018-10-09T19:39:33.642Z,15.67
2018-10-09T19:42:02.047Z,15.83
2018-10-09T19:44:29.956Z,16.07
2018-10-09T19:46:58.402Z,15.63
2018-10-09T19:49:26.499Z,16.53
2018-10-09T19:51:54.803Z,16.03
2018-10-09T19:54:23.015Z,16.77
2018-10-09T19:56:52.425Z,16.67
2018-10-09T19:59:20.707Z,16.07
2018-10-09T20:01:49.351Z,15.47
2018-10-09T20:04:17.915Z,16.40
2018-10-09T20:06:46.390Z,16.07
2018-10-09T20:09:14.893Z,15.33
2018-10-09T20:11:43.070Z,16.33
2018-10-09T20:14:12.915Z,16.67
2018-10-09T20:16:41.201Z,16.37
2018-10-09T20:19:09.822Z,16.90
2018-10-09T20:21:37.573Z,16.40
2018-10-09T20:24:05.587Z,17.60
2018-10-09T20:26:33.627Z,17.80
2018-10-09T20:29:01.821Z,16.87
2018-10-09T20:31:30.263Z,17.33
2018-10-09T20:33:58.446Z,16.67
2018-10-09T20:36:26.723Z,18.20
2018-10-09T20:38:54.599Z,17.07
2018-10-09T20:41:22.757Z,16.70
2018-10-09T20:43:50.975Z,17.20
2018-10-09T20:46:19.211Z,19.03
2018-10-09T20:48:47.717Z,21.83
2018-10-09T20:51:15.904Z,19.03
2018-10-09T20:53:44.186Z,18.63
2018-10-09T20:56:12.411Z,18.20
2018-10-09T20:58:40.500Z,18.93
2018-10-09T21:01:08.771Z,18.53
2018-10-09T21:03:37.272Z,19.37
2018-10-09T21:06:05.774Z,19.60
2018-10-09T21:08:34.044Z,19.27
2018-10-09T21:11:02.500Z,21.03
2018-10-09T21:13:30.579Z,19.77
2018-10-09T21:15:58.899Z,20.47
2018-10-09T21:18:27.091Z,21.00
2018-10-09T21:20:54.987Z,18.63
2018-10-09T21:23:23.331Z,18.97
2018-10-09T21:25:51.715Z,18.83
2018-10-09T21:28:19.610Z,18.47
2018-10-09T21:30:47.566Z,18.77
2018-10-09T21:33:15.563Z,19.73
2018-10-09T21:35:43.828Z,18.03
2018-10-09T21:38:12.123Z,17.93
2018-10-09T21:40:40.377Z,16.07
2018-10-09T21:43:08.831Z,17.40
2018-10-09T21:45:36.755Z,16.57
2018-10-09T21:48:05.202Z,17.13
2018-10-09T21:50:33.282Z,16.70
2018-10-09T21:53:01.436Z,16.60
2018-10-09T21:55:29.778Z,16.13
2018-10-09T21:57:58.343Z,15.17
2018-10-09T22:00:26.720Z,16.13
2018-10-09T22:02:55.043Z,15.50
2018-10-09T22:05:23.151Z,15.80
2018-10-09T22:07:51.659Z,17.20
2018-10-09T22:10:19.683Z,16.17
2018-10-09T22:12:47.971Z,15.73
2018-10-09T22:15:16.075Z,14.77
2018-10-09T22:17:44.109Z,16.03
2018-10-09T22:20:12.487Z,15.57
2018-10-09T22:22:40.462Z,14.97
2018-10-09T22:25:08.733Z,14.40
2018-10-09T22:27:37.008Z,14.63
2018-10-09T22:30:05.627Z,14.57
2018-10-09T22:32:33.739Z,14.30
2018-10-09T22:35:01.915Z,15.07
2018-10-09T22:37:29.963Z,15.13
2018-10-09T22:39:58.147Z,17.53
2018-10-09T22:42:26.359Z,15.50
2018-10-09T22:44:54.159Z,15.50
2018-10-09T22:47:22.367Z,15.67
2018-10-09T22:49:50.339Z,14.90
2018-10-09T22:52:18.558Z,15.63
2018-10-09T22:54:46.777Z,15.13
2018-10-09T22:57:14.720Z,16.80
2018-10-09T22:59:43.150Z,16.23
2018-10-09T23:02:11.245Z,15.93
2018-10-09T23:04:39.740Z,17.27
2018-10-09T23:07:07.927Z,19.23
2018-10-09T23:09:36.050Z,20.63
2018-10-09T23:12:04.532Z,20.10
2018-10-09T23:14:32.839Z,21.30
2018-10-09T23:17:00.887Z,21.17
2018-10-09T23:19:29.043Z,20.07
2018-10-09T23:21:57.298Z,20.00
2018-10-09T23:24:25.470Z,19.50
2018-10-09T23:26:53.358Z,19.70
2018-10-09T23:29:21.890Z,19.77
2018-10-09T23:31:50.117Z,19.47
2018-10-09T23:34:18.220Z,18.20
2018-10-09T23:36:46.732Z,18.23
2018-10-09T23:39:14.764Z,18.80
2018-10-09T23:41:43.247Z,18.67
2018-10-09T23:44:11.548Z,18.87
2018-10-09T23:46:39.868Z,19.07
2018-10-09T23:49:08.058Z,17.83
2018-10-09T23:51:36.416Z,17.87
2018-10-09T23:54:04.679Z,17.80
2018-10-09T23:56:32.666Z,18.63
2018-10-09T23:59:00.585Z,18.17
